DAL2381 KHOU-KATL
Flight info
| Callsign | DAL2381 |
|---|---|
| Flight time | N/A |
| Altitude | 35000 |
| Route | ELOCO6 LLA HRV PAYTN SHYRE HOBTT3 |
| Aircraft | MD88/M-SDFGIRWY/S |
Departure
| Time | 2026-05-08 00:52 |
|---|---|
| Airport | William P. Hobby Airport (KHOU) |
Arrival
| Time | N/A |
|---|---|
| Airport | Hartsfield Jackson Atlanta International Airport (KATL) |
| Time | Latitude | Longitude | Altitude | Speed | Heading |
|---|---|---|---|---|---|
| 2026-05-08 00:35 | 29.65245 | -95.27307 | 52 ft | 0 kts | 224° |
| 2026-05-08 00:45 | 29.65227 | -95.27327 | 52 ft | 8 kts | 224° |
| 2026-05-08 00:45 | 29.65166 | -95.27394 | 53 ft | 14 kts | 225° |
| 2026-05-08 00:45 | 29.65142 | -95.27496 | 53 ft | 13 kts | 251° |
| 2026-05-08 00:46 | 29.65080 | -95.27569 | 53 ft | 13 kts | 223° |
| 2026-05-08 00:46 | 29.65008 | -95.27645 | 53 ft | 15 kts | 223° |
| 2026-05-08 00:46 | 29.64931 | -95.27728 | 52 ft | 16 kts | 225° |
| 2026-05-08 00:46 | 29.64851 | -95.27820 | 55 ft | 16 kts | 225° |
| 2026-05-08 00:47 | 29.64769 | -95.27912 | 54 ft | 18 kts | 224° |
| 2026-05-08 00:47 | 29.64676 | -95.28014 | 55 ft | 19 kts | 223° |
| 2026-05-08 00:47 | 29.64576 | -95.28122 | 54 ft | 20 kts | 223° |
| 2026-05-08 00:47 | 29.64472 | -95.28239 | 54 ft | 21 kts | 225° |
| 2026-05-08 00:48 | 29.64362 | -95.28360 | 55 ft | 22 kts | 225° |
| 2026-05-08 00:48 | 29.64253 | -95.28484 | 50 ft | 22 kts | 224° |
| 2026-05-08 00:48 | 29.64136 | -95.28610 | 53 ft | 24 kts | 223° |
| 2026-05-08 00:48 | 29.64032 | -95.28657 | 55 ft | 14 kts | 139° |
| 2026-05-08 00:49 | 29.64000 | -95.28621 | 51 ft | 0 kts | 134° |
| 2026-05-08 00:50 | 29.63982 | -95.28600 | 55 ft | 8 kts | 134° |
| 2026-05-08 00:51 | 29.63946 | -95.28530 | 55 ft | 13 kts | 92° |
| 2026-05-08 00:51 | 29.64011 | -95.28425 | 53 ft | 35 kts | 43° |
| 2026-05-08 00:51 | 29.64448 | -95.27945 | 51 ft | 136 kts | 43° |
| 2026-05-08 00:51 | 29.65276 | -95.27044 | 406 ft | 196 kts | 45° |
| 2026-05-08 00:52 | 29.66331 | -95.25892 | 1507 ft | 221 kts | 45° |
| 2026-05-08 00:52 | 29.67476 | -95.24626 | 2850 ft | 234 kts | 46° |
| 2026-05-08 00:52 | 29.68631 | -95.23324 | 4010 ft | 231 kts | 46° |
| 2026-05-08 00:52 | 29.69787 | -95.22049 | 4831 ft | 234 kts | 43° |
| 2026-05-08 00:53 | 29.71019 | -95.20766 | 4919 ft | 241 kts | 42° |
| 2026-05-08 00:53 | 29.72279 | -95.19467 | 4775 ft | 243 kts | 43° |
| 2026-05-08 00:53 | 29.73513 | -95.18152 | 4796 ft | 237 kts | 45° |
| 2026-05-08 00:53 | 29.74533 | -95.16727 | 4977 ft | 226 kts | 53° |
| 2026-05-08 00:54 | 29.75702 | -95.15624 | 5251 ft | 210 kts | 26° |
| 2026-05-08 00:54 | 29.76914 | -95.14878 | 5737 ft | 186 kts | 36° |
| 2026-05-08 00:54 | 29.77874 | -95.14012 | 6130 ft | 169 kts | 45° |
| 2026-05-08 00:54 | 29.78564 | -95.12869 | 5971 ft | 185 kts | 72° |
| 2026-05-08 00:55 | 29.78708 | -95.11441 | 6213 ft | 170 kts | 101° |
| 2026-05-08 00:55 | 29.78456 | -95.10111 | 6767 ft | 175 kts | 104° |
| 2026-05-08 00:55 | 29.78186 | -95.08703 | 7322 ft | 186 kts | 103° |
| 2026-05-08 00:55 | 29.77929 | -95.07196 | 7887 ft | 198 kts | 102° |
| 2026-05-08 00:56 | 29.77666 | -95.05599 | 8450 ft | 210 kts | 102° |
| 2026-05-08 00:56 | 29.77405 | -95.03903 | 8920 ft | 228 kts | 100° |
| 2026-05-08 00:56 | 29.77151 | -95.02028 | 9424 ft | 241 kts | 99° |
| 2026-05-08 00:56 | 29.76923 | -95.00065 | 9941 ft | 256 kts | 98° |
| 2026-05-08 00:57 | 29.76715 | -94.97971 | 10207 ft | 276 kts | 97° |
| 2026-05-08 00:57 | 29.76518 | -94.95697 | 10466 ft | 295 kts | 96° |
| 2026-05-08 00:57 | 29.76325 | -94.93275 | 10741 ft | 311 kts | 96° |
| 2026-05-08 00:57 | 29.76142 | -94.90732 | 11019 ft | 326 kts | 96° |
| 2026-05-08 00:58 | 29.75962 | -94.88076 | 11285 ft | 339 kts | 95° |
| 2026-05-08 00:58 | 29.75842 | -94.86264 | 11462 ft | 347 kts | 95° |
| 2026-05-08 00:58 | 29.75658 | -94.83470 | 11868 ft | 352 kts | 96° |
| 2026-05-08 00:58 | 29.75472 | -94.80638 | 12282 ft | 358 kts | 96° |
| 2026-05-08 00:59 | 29.75279 | -94.77764 | 12721 ft | 362 kts | 96° |
| 2026-05-08 00:59 | 29.75081 | -94.74871 | 13259 ft | 360 kts | 97° |
| 2026-05-08 00:59 | 29.74887 | -94.72030 | 14056 ft | 352 kts | 97° |
| 2026-05-08 00:59 | 29.74694 | -94.69233 | 14629 ft | 351 kts | 98° |
| 2026-05-08 01:00 | 29.74492 | -94.66419 | 15018 ft | 355 kts | 97° |
| 2026-05-08 01:00 | 29.74276 | -94.63563 | 15382 ft | 360 kts | 98° |
| 2026-05-08 01:00 | 29.74046 | -94.60685 | 15802 ft | 363 kts | 98° |
| 2026-05-08 01:00 | 29.73815 | -94.57811 | 16163 ft | 367 kts | 98° |
| 2026-05-08 01:01 | 29.73586 | -94.54875 | 16550 ft | 370 kts | 98° |
| 2026-05-08 01:01 | 29.73360 | -94.51891 | 16900 ft | 375 kts | 98° |
| 2026-05-08 01:01 | 29.73137 | -94.48886 | 17245 ft | 379 kts | 98° |
| 2026-05-08 01:01 | 29.72916 | -94.45847 | 17609 ft | 382 kts | 98° |
| 2026-05-08 01:02 | 29.72695 | -94.42784 | 17938 ft | 386 kts | 98° |
| 2026-05-08 01:02 | 29.72472 | -94.39692 | 18276 ft | 389 kts | 98° |
| 2026-05-08 01:02 | 29.72246 | -94.36566 | 18586 ft | 392 kts | 98° |
| 2026-05-08 01:02 | 29.72011 | -94.33476 | 18926 ft | 393 kts | 99° |
| 2026-05-08 01:03 | 29.71703 | -94.30346 | 19244 ft | 394 kts | 101° |
| 2026-05-08 01:03 | 29.71346 | -94.27211 | 19548 ft | 396 kts | 101° |
| 2026-05-08 01:03 | 29.70971 | -94.24066 | 19878 ft | 397 kts | 102° |
| 2026-05-08 01:03 | 29.70593 | -94.20909 | 20178 ft | 399 kts | 101° |
| 2026-05-08 01:04 | 29.70217 | -94.17729 | 20543 ft | 399 kts | 101° |
| 2026-05-08 01:04 | 29.69850 | -94.14552 | 20822 ft | 402 kts | 101° |
| 2026-05-08 01:04 | 29.69489 | -94.11360 | 21155 ft | 403 kts | 101° |
| 2026-05-08 01:04 | 29.69132 | -94.08154 | 21441 ft | 405 kts | 101° |
| 2026-05-08 01:05 | 29.68774 | -94.04926 | 21739 ft | 407 kts | 100° |
| 2026-05-08 01:05 | 29.68526 | -94.01702 | 22014 ft | 411 kts | 95° |
| 2026-05-08 01:05 | 29.68467 | -93.98406 | 22317 ft | 413 kts | 92° |
| 2026-05-08 01:05 | 29.68478 | -93.95092 | 22601 ft | 415 kts | 92° |
| 2026-05-08 01:06 | 29.68501 | -93.91767 | 22897 ft | 417 kts | 92° |
| 2026-05-08 01:06 | 29.68513 | -93.88423 | 23164 ft | 419 kts | 92° |
| 2026-05-08 01:06 | 29.68511 | -93.85068 | 23464 ft | 420 kts | 92° |
| 2026-05-08 01:06 | 29.68494 | -93.81693 | 23693 ft | 422 kts | 92° |
| 2026-05-08 01:07 | 29.68465 | -93.78313 | 23932 ft | 423 kts | 93° |
| 2026-05-08 01:07 | 29.68430 | -93.74919 | 24142 ft | 425 kts | 93° |
| 2026-05-08 01:07 | 29.68391 | -93.71516 | 24368 ft | 427 kts | 93° |
| 2026-05-08 01:07 | 29.68351 | -93.68135 | 24557 ft | 429 kts | 93° |
| 2026-05-08 01:08 | 29.68313 | -93.64690 | 24769 ft | 430 kts | 93° |
| 2026-05-08 01:08 | 29.68276 | -93.61234 | 24959 ft | 433 kts | 93° |
| 2026-05-08 01:08 | 29.68241 | -93.57766 | 25175 ft | 434 kts | 93° |
| 2026-05-08 01:08 | 29.68206 | -93.54290 | 25368 ft | 435 kts | 93° |
| 2026-05-08 01:09 | 29.68165 | -93.50804 | 25565 ft | 437 kts | 93° |
| 2026-05-08 01:09 | 29.68116 | -93.47294 | 25745 ft | 439 kts | 93° |
| 2026-05-08 01:09 | 29.68066 | -93.43776 | 25941 ft | 440 kts | 94° |
| 2026-05-08 01:09 | 29.68015 | -93.40287 | 26107 ft | 442 kts | 93° |
| 2026-05-08 01:10 | 29.67965 | -93.36753 | 26300 ft | 443 kts | 93° |
| 2026-05-08 01:10 | 29.67915 | -93.33197 | 26459 ft | 445 kts | 93° |
| 2026-05-08 01:10 | 29.67867 | -93.29634 | 26644 ft | 446 kts | 93° |
| 2026-05-08 01:10 | 29.67820 | -93.26060 | 26801 ft | 448 kts | 93° |
| 2026-05-08 01:11 | 29.67773 | -93.22476 | 26975 ft | 449 kts | 93° |
| 2026-05-08 01:11 | 29.67725 | -93.18880 | 27131 ft | 450 kts | 93° |
| 2026-05-08 01:11 | 29.67678 | -93.15269 | 27292 ft | 452 kts | 93° |
| 2026-05-08 01:11 | 29.67630 | -93.11656 | 27451 ft | 453 kts | 93° |
| 2026-05-08 01:12 | 29.67581 | -93.08023 | 27591 ft | 455 kts | 93° |
| 2026-05-08 01:12 | 29.67529 | -93.04379 | 27743 ft | 456 kts | 94° |
| 2026-05-08 01:12 | 29.67468 | -93.00720 | 27846 ft | 458 kts | 94° |
| 2026-05-08 01:12 | 29.67403 | -92.97066 | 28219 ft | 449 kts | 94° |
| 2026-05-08 01:13 | 29.67347 | -92.93622 | 29207 ft | 431 kts | 94° |
| 2026-05-08 01:13 | 29.67285 | -92.90138 | 29105 ft | 440 kts | 94° |
| 2026-05-08 01:13 | 29.67219 | -92.86609 | 29168 ft | 444 kts | 94° |
| 2026-05-08 01:14 | 29.67091 | -92.79442 | 29337 ft | 450 kts | 94° |
| 2026-05-08 01:14 | 29.66969 | -92.72231 | 29499 ft | 456 kts | 94° |
| 2026-05-08 01:15 | 29.66848 | -92.64902 | 29680 ft | 460 kts | 94° |
| 2026-05-08 01:15 | 29.66788 | -92.61218 | 29826 ft | 461 kts | 94° |
| 2026-05-08 01:15 | 29.66722 | -92.57552 | 30171 ft | 455 kts | 94° |
| 2026-05-08 01:15 | 29.66637 | -92.53931 | 30538 ft | 448 kts | 95° |
| 2026-05-08 01:16 | 29.66551 | -92.50363 | 30774 ft | 446 kts | 95° |
| 2026-05-08 01:16 | 29.66474 | -92.46791 | 30904 ft | 447 kts | 94° |
| 2026-05-08 01:16 | 29.66409 | -92.43251 | 31033 ft | 448 kts | 94° |
| 2026-05-08 01:16 | 29.66352 | -92.39661 | 31148 ft | 449 kts | 94° |
| 2026-05-08 01:17 | 29.66348 | -92.36065 | 31263 ft | 451 kts | 90° |
| 2026-05-08 01:17 | 29.66566 | -92.32462 | 31380 ft | 453 kts | 86° |
| 2026-05-08 01:17 | 29.66907 | -92.28858 | 31487 ft | 453 kts | 85° |
| 2026-05-08 01:18 | 29.67636 | -92.21670 | 31516 ft | 450 kts | 85° |
| 2026-05-08 01:18 | 29.68308 | -92.14566 | 31478 ft | 445 kts | 85° |
| 2026-05-08 01:19 | 29.68921 | -92.07519 | 31411 ft | 441 kts | 86° |
| 2026-05-08 01:19 | 29.69511 | -92.00517 | 31375 ft | 436 kts | 86° |
| 2026-05-08 01:19 | 29.69798 | -91.97123 | 31633 ft | 425 kts | 86° |
| 2026-05-08 01:20 | 29.70084 | -91.93771 | 31767 ft | 419 kts | 86° |
| 2026-05-08 01:20 | 29.70369 | -91.90424 | 31661 ft | 420 kts | 85° |
| 2026-05-08 01:20 | 29.70658 | -91.87066 | 31665 ft | 423 kts | 86° |
| 2026-05-08 01:21 | 29.71224 | -91.80282 | 31674 ft | 429 kts | 86° |
| 2026-05-08 01:21 | 29.71501 | -91.76835 | 31432 ft | 440 kts | 86° |
| 2026-05-08 01:21 | 29.71781 | -91.73335 | 31550 ft | 438 kts | 86° |
| 2026-05-08 01:22 | 29.72354 | -91.66275 | 31394 ft | 449 kts | 86° |
| 2026-05-08 01:22 | 29.72650 | -91.62672 | 31275 ft | 455 kts | 86° |
| 2026-05-08 01:22 | 29.72951 | -91.59012 | 31044 ft | 464 kts | 86° |
| 2026-05-08 01:23 | 29.73568 | -91.51553 | 30949 ft | 470 kts | 86° |
| 2026-05-08 01:23 | 29.74190 | -91.44030 | 30936 ft | 473 kts | 86° |
| 2026-05-08 01:24 | 29.74807 | -91.36466 | 30932 ft | 476 kts | 86° |
| 2026-05-08 01:24 | 29.75396 | -91.28906 | 30931 ft | 478 kts | 86° |
| 2026-05-08 01:25 | 29.75991 | -91.21256 | 30928 ft | 480 kts | 86° |
| 2026-05-08 01:25 | 29.76595 | -91.13585 | 30919 ft | 482 kts | 86° |
| 2026-05-08 01:26 | 29.77201 | -91.05891 | 30919 ft | 483 kts | 86° |
| 2026-05-08 01:26 | 29.77812 | -90.98169 | 30914 ft | 485 kts | 86° |
| 2026-05-08 01:27 | 29.78416 | -90.90476 | 30910 ft | 486 kts | 86° |
| 2026-05-08 01:27 | 29.78996 | -90.82721 | 30910 ft | 487 kts | 86° |
| 2026-05-08 01:28 | 29.79572 | -90.74934 | 30910 ft | 488 kts | 86° |
| 2026-05-08 01:28 | 29.80154 | -90.67141 | 30910 ft | 488 kts | 86° |
| 2026-05-08 01:29 | 29.80743 | -90.59344 | 30912 ft | 489 kts | 86° |
| 2026-05-08 01:29 | 29.81333 | -90.51535 | 30911 ft | 490 kts | 86° |
| 2026-05-08 01:30 | 29.81895 | -90.43760 | 30907 ft | 490 kts | 88° |
| 2026-05-08 01:30 | 29.82279 | -90.35922 | 30902 ft | 490 kts | 88° |
| 2026-05-08 01:31 | 29.82790 | -90.28083 | 30928 ft | 491 kts | 86° |
| 2026-05-08 01:31 | 29.83421 | -90.20233 | 30916 ft | 492 kts | 85° |
| 2026-05-08 01:32 | 29.84062 | -90.12483 | 30912 ft | 492 kts | 85° |
| 2026-05-08 01:32 | 29.84688 | -90.04679 | 30911 ft | 493 kts | 84° |
| 2026-05-08 01:32 | 29.85401 | -90.00834 | 30911 ft | 491 kts | 68° |
| 2026-05-08 01:33 | 29.86957 | -89.97361 | 30910 ft | 484 kts | 49° |
| 2026-05-08 01:33 | 29.91347 | -89.91715 | 30919 ft | 477 kts | 40° |
| 2026-05-08 01:34 | 29.95973 | -89.86218 | 30912 ft | 478 kts | 40° |
| 2026-05-08 01:34 | 30.00508 | -89.80585 | 30907 ft | 480 kts | 42° |
| 2026-05-08 01:35 | 30.04973 | -89.74837 | 30903 ft | 480 kts | 43° |
| 2026-05-08 01:35 | 30.09423 | -89.69074 | 30909 ft | 481 kts | 43° |
| 2026-05-08 01:36 | 30.13862 | -89.63357 | 30929 ft | 481 kts | 43° |
| 2026-05-08 01:36 | 30.18338 | -89.57587 | 30914 ft | 482 kts | 43° |
| 2026-05-08 01:37 | 30.22813 | -89.51807 | 30915 ft | 482 kts | 43° |
| 2026-05-08 01:37 | 30.27291 | -89.46023 | 30894 ft | 482 kts | 43° |
| 2026-05-08 01:38 | 30.31751 | -89.40260 | 30903 ft | 482 kts | 43° |
| 2026-05-08 01:38 | 30.36231 | -89.34465 | 30904 ft | 482 kts | 43° |
| 2026-05-08 01:39 | 30.40708 | -89.28668 | 30911 ft | 483 kts | 43° |
| 2026-05-08 01:39 | 30.45181 | -89.22853 | 30903 ft | 483 kts | 43° |
| 2026-05-08 01:40 | 30.49653 | -89.17020 | 30904 ft | 484 kts | 43° |
| 2026-05-08 01:40 | 30.54137 | -89.11176 | 30903 ft | 484 kts | 43° |
| 2026-05-08 01:41 | 30.58586 | -89.05378 | 30894 ft | 484 kts | 43° |
| 2026-05-08 01:41 | 30.63067 | -88.99534 | 30899 ft | 484 kts | 43° |
| 2026-05-08 01:42 | 30.67550 | -88.93679 | 30903 ft | 484 kts | 43° |
| 2026-05-08 01:42 | 30.72025 | -88.87816 | 30912 ft | 485 kts | 43° |
| 2026-05-08 01:43 | 30.76497 | -88.81928 | 30922 ft | 485 kts | 43° |
| 2026-05-08 01:43 | 30.80941 | -88.76083 | 30925 ft | 485 kts | 43° |
| 2026-05-08 01:44 | 30.85417 | -88.70199 | 30923 ft | 485 kts | 43° |
| 2026-05-08 01:44 | 30.89896 | -88.64305 | 30926 ft | 485 kts | 43° |
| 2026-05-08 01:45 | 30.94371 | -88.58410 | 30926 ft | 486 kts | 43° |
| 2026-05-08 01:45 | 30.98093 | -88.53491 | 30940 ft | 487 kts | 43° |
| 2026-05-08 01:46 | 31.03292 | -88.46593 | 30924 ft | 487 kts | 43° |
| 2026-05-08 01:46 | 31.07039 | -88.41619 | 30927 ft | 487 kts | 43° |
| 2026-05-08 01:47 | 31.11490 | -88.35712 | 30925 ft | 487 kts | 43° |
| 2026-05-08 01:47 | 31.15967 | -88.29767 | 30926 ft | 487 kts | 43° |
| 2026-05-08 01:48 | 31.22679 | -88.20841 | 30924 ft | 487 kts | 43° |
| 2026-05-08 01:48 | 31.27138 | -88.14832 | 30929 ft | 489 kts | 43° |
| 2026-05-08 01:49 | 31.31583 | -88.08815 | 30925 ft | 489 kts | 43° |
| 2026-05-08 01:49 | 31.36066 | -88.02836 | 30923 ft | 488 kts | 42° |
| 2026-05-08 01:50 | 31.40532 | -87.96914 | 30921 ft | 488 kts | 42° |
| 2026-05-08 01:50 | 31.45031 | -87.90938 | 30922 ft | 488 kts | 43° |
| 2026-05-08 01:51 | 31.49280 | -87.84685 | 30925 ft | 493 kts | 50° |
| 2026-05-08 01:51 | 31.53188 | -87.78058 | 30934 ft | 495 kts | 51° |
| 2026-05-08 01:52 | 31.57099 | -87.71410 | 30925 ft | 495 kts | 50° |
| 2026-05-08 01:52 | 31.61057 | -87.64799 | 30919 ft | 495 kts | 49° |
| 2026-05-08 01:53 | 31.65042 | -87.58203 | 30930 ft | 495 kts | 49° |
| 2026-05-08 01:53 | 31.69018 | -87.51599 | 30926 ft | 496 kts | 49° |
| 2026-05-08 01:54 | 31.72994 | -87.44984 | 30937 ft | 496 kts | 50° |
| 2026-05-08 01:54 | 31.76965 | -87.38353 | 30932 ft | 496 kts | 50° |
| 2026-05-08 01:55 | 31.80926 | -87.31687 | 30935 ft | 498 kts | 49° |
| 2026-05-08 01:55 | 31.84864 | -87.25053 | 30924 ft | 498 kts | 49° |
| 2026-05-08 01:56 | 31.88844 | -87.18361 | 30923 ft | 499 kts | 49° |
| 2026-05-08 01:56 | 31.92824 | -87.11666 | 30921 ft | 499 kts | 49° |
| 2026-05-08 01:57 | 31.96805 | -87.04958 | 30919 ft | 500 kts | 49° |
| 2026-05-08 01:57 | 32.00787 | -86.98238 | 30922 ft | 500 kts | 49° |
| 2026-05-08 01:58 | 32.04758 | -86.91495 | 30940 ft | 501 kts | 49° |
| 2026-05-08 01:58 | 32.06747 | -86.88097 | 30708 ft | 507 kts | 49° |
| 2026-05-08 01:58 | 32.08769 | -86.84658 | 30480 ft | 512 kts | 49° |
| 2026-05-08 01:59 | 32.10814 | -86.81187 | 30264 ft | 517 kts | 49° |
| 2026-05-08 01:59 | 32.12875 | -86.77688 | 30030 ft | 521 kts | 49° |
| 2026-05-08 01:59 | 32.14942 | -86.74173 | 29763 ft | 521 kts | 49° |
| 2026-05-08 01:59 | 32.17000 | -86.70667 | 29489 ft | 514 kts | 49° |
| 2026-05-08 02:00 | 32.18977 | -86.67275 | 29211 ft | 490 kts | 49° |
| 2026-05-08 02:00 | 32.20864 | -86.64028 | 28932 ft | 470 kts | 49° |
| 2026-05-08 02:00 | 32.22683 | -86.60906 | 28652 ft | 455 kts | 48° |
| 2026-05-08 02:00 | 32.24484 | -86.57845 | 28384 ft | 454 kts | 48° |
| 2026-05-08 02:01 | 32.26301 | -86.54772 | 28138 ft | 459 kts | 48° |
| 2026-05-08 02:01 | 32.28114 | -86.51704 | 27895 ft | 462 kts | 48° |
| 2026-05-08 02:01 | 32.29951 | -86.48586 | 27689 ft | 462 kts | 48° |
| 2026-05-08 02:01 | 32.31779 | -86.45469 | 27439 ft | 461 kts | 48° |
| 2026-05-08 02:02 | 32.33592 | -86.42354 | 27191 ft | 459 kts | 49° |
| 2026-05-08 02:02 | 32.35399 | -86.39221 | 26919 ft | 464 kts | 49° |
| 2026-05-08 02:02 | 32.37238 | -86.36042 | 26679 ft | 474 kts | 49° |
| 2026-05-08 02:02 | 32.39118 | -86.32801 | 26459 ft | 479 kts | 49° |
| 2026-05-08 02:03 | 32.41007 | -86.29544 | 26221 ft | 479 kts | 49° |
| 2026-05-08 02:03 | 32.42890 | -86.26298 | 25981 ft | 478 kts | 49° |
| 2026-05-08 02:03 | 32.44760 | -86.23060 | 25747 ft | 476 kts | 50° |
| 2026-05-08 02:03 | 32.46625 | -86.19823 | 25513 ft | 473 kts | 50° |
| 2026-05-08 02:04 | 32.48473 | -86.16613 | 25283 ft | 471 kts | 49° |
| 2026-05-08 02:04 | 32.50319 | -86.13409 | 25055 ft | 469 kts | 49° |
| 2026-05-08 02:04 | 32.52155 | -86.10221 | 24826 ft | 468 kts | 49° |
| 2026-05-08 02:04 | 32.53986 | -86.07045 | 24599 ft | 466 kts | 49° |
| 2026-05-08 02:05 | 32.55791 | -86.03912 | 24401 ft | 464 kts | 50° |
| 2026-05-08 02:05 | 32.57600 | -86.00769 | 24177 ft | 459 kts | 50° |
| 2026-05-08 02:05 | 32.59395 | -85.97646 | 23955 ft | 458 kts | 50° |
| 2026-05-08 02:05 | 32.61182 | -85.94535 | 23734 ft | 456 kts | 50° |
| 2026-05-08 02:06 | 32.62964 | -85.91432 | 23501 ft | 454 kts | 50° |
| 2026-05-08 02:06 | 32.64732 | -85.88343 | 23239 ft | 452 kts | 50° |
| 2026-05-08 02:06 | 32.66497 | -85.85267 | 22975 ft | 450 kts | 50° |
| 2026-05-08 02:06 | 32.68257 | -85.82197 | 22698 ft | 448 kts | 50° |
| 2026-05-08 02:07 | 32.70012 | -85.79138 | 22182 ft | 447 kts | 50° |
| 2026-05-08 02:07 | 32.71752 | -85.76098 | 21667 ft | 442 kts | 50° |
| 2026-05-08 02:07 | 32.73472 | -85.73092 | 21174 ft | 437 kts | 50° |
| 2026-05-08 02:07 | 32.75176 | -85.70112 | 20694 ft | 434 kts | 50° |
| 2026-05-08 02:08 | 32.76862 | -85.67160 | 20220 ft | 430 kts | 50° |
| 2026-05-08 02:08 | 32.78533 | -85.64235 | 19750 ft | 426 kts | 50° |
| 2026-05-08 02:08 | 32.80172 | -85.61368 | 19292 ft | 423 kts | 50° |
| 2026-05-08 02:08 | 32.81823 | -85.58477 | 18864 ft | 423 kts | 50° |
| 2026-05-08 02:09 | 32.83464 | -85.55572 | 18410 ft | 421 kts | 50° |
| 2026-05-08 02:09 | 32.85089 | -85.52680 | 17909 ft | 419 kts | 50° |
| 2026-05-08 02:09 | 32.86699 | -85.49816 | 17392 ft | 414 kts | 50° |
| 2026-05-08 02:09 | 32.88296 | -85.46985 | 16886 ft | 410 kts | 50° |
| 2026-05-08 02:10 | 32.89884 | -85.44182 | 16384 ft | 406 kts | 50° |
| 2026-05-08 02:10 | 32.91461 | -85.41404 | 15882 ft | 403 kts | 49° |
| 2026-05-08 02:10 | 32.93022 | -85.38658 | 15397 ft | 399 kts | 49° |
| 2026-05-08 02:10 | 32.94571 | -85.35936 | 14921 ft | 395 kts | 49° |
| 2026-05-08 02:11 | 32.96088 | -85.33260 | 14449 ft | 384 kts | 49° |
| 2026-05-08 02:11 | 32.97554 | -85.30664 | 13992 ft | 372 kts | 49° |
| 2026-05-08 02:11 | 32.98984 | -85.28136 | 13491 ft | 363 kts | 48° |
| 2026-05-08 02:11 | 33.00369 | -85.25707 | 12979 ft | 355 kts | 48° |
| 2026-05-08 02:12 | 33.01762 | -85.23274 | 12484 ft | 347 kts | 49° |
| 2026-05-08 02:12 | 33.03158 | -85.21017 | 12218 ft | 331 kts | 42° |
| 2026-05-08 02:12 | 33.04634 | -85.19013 | 12103 ft | 323 kts | 39° |
| 2026-05-08 02:12 | 33.06176 | -85.17055 | 12032 ft | 323 kts | 38° |
| 2026-05-08 02:13 | 33.07744 | -85.15096 | 12042 ft | 336 kts | 37° |
| 2026-05-08 02:13 | 33.09433 | -85.13018 | 12036 ft | 362 kts | 38° |
| 2026-05-08 02:13 | 33.11193 | -85.10832 | 12020 ft | 364 kts | 39° |
| 2026-05-08 02:13 | 33.12926 | -85.08623 | 12003 ft | 365 kts | 39° |
| 2026-05-08 02:14 | 33.14602 | -85.06453 | 11999 ft | 364 kts | 40° |
| 2026-05-08 02:14 | 33.16310 | -85.04226 | 11983 ft | 365 kts | 40° |
| 2026-05-08 02:14 | 33.18028 | -85.01977 | 11996 ft | 366 kts | 40° |
| 2026-05-08 02:14 | 33.19746 | -84.99728 | 11993 ft | 366 kts | 40° |
| 2026-05-08 02:15 | 33.21461 | -84.97478 | 11988 ft | 365 kts | 40° |
| 2026-05-08 02:15 | 33.23173 | -84.95237 | 11988 ft | 365 kts | 40° |
| 2026-05-08 02:15 | 33.24890 | -84.92990 | 11988 ft | 366 kts | 40° |
| 2026-05-08 02:15 | 33.26587 | -84.90772 | 11987 ft | 365 kts | 40° |
| 2026-05-08 02:16 | 33.28304 | -84.88530 | 11994 ft | 365 kts | 40° |
| 2026-05-08 02:16 | 33.30021 | -84.86291 | 11987 ft | 366 kts | 40° |
| 2026-05-08 02:16 | 33.31742 | -84.84048 | 11993 ft | 366 kts | 39° |
| 2026-05-08 02:16 | 33.33496 | -84.81858 | 11986 ft | 363 kts | 37° |
| 2026-05-08 02:17 | 33.35263 | -84.79774 | 11971 ft | 345 kts | 36° |
| 2026-05-08 02:17 | 33.36920 | -84.77844 | 11961 ft | 320 kts | 35° |
| 2026-05-08 02:17 | 33.38465 | -84.76052 | 11947 ft | 298 kts | 34° |
| 2026-05-08 02:17 | 33.39928 | -84.74370 | 11947 ft | 287 kts | 33° |
| 2026-05-08 02:18 | 33.41380 | -84.72720 | 11967 ft | 288 kts | 33° |
| 2026-05-08 02:18 | 33.42841 | -84.71062 | 11978 ft | 290 kts | 33° |
| 2026-05-08 02:18 | 33.44304 | -84.69403 | 11997 ft | 290 kts | 33° |
| 2026-05-08 02:18 | 33.45763 | -84.67737 | 12002 ft | 290 kts | 33° |
| 2026-05-08 02:19 | 33.47215 | -84.66068 | 12000 ft | 291 kts | 33° |
| 2026-05-08 02:19 | 33.48654 | -84.64401 | 12004 ft | 291 kts | 34° |
| 2026-05-08 02:19 | 33.50109 | -84.62707 | 12004 ft | 292 kts | 33° |
| 2026-05-08 02:19 | 33.51568 | -84.61006 | 12005 ft | 291 kts | 34° |
| 2026-05-08 02:20 | 33.52985 | -84.59250 | 11999 ft | 298 kts | 45° |
| 2026-05-08 02:20 | 33.53918 | -84.56959 | 11793 ft | 317 kts | 73° |
| 2026-05-08 02:20 | 33.54114 | -84.54318 | 11332 ft | 319 kts | 91° |
| 2026-05-08 02:20 | 33.54035 | -84.51664 | 10863 ft | 317 kts | 93° |
| 2026-05-08 02:21 | 33.53935 | -84.49054 | 10396 ft | 314 kts | 93° |
| 2026-05-08 02:21 | 33.53833 | -84.46451 | 9932 ft | 311 kts | 93° |
| 2026-05-08 02:21 | 33.53742 | -84.43874 | 9405 ft | 306 kts | 92° |
| 2026-05-08 02:21 | 33.53676 | -84.41367 | 8886 ft | 297 kts | 92° |
| 2026-05-08 02:22 | 33.53628 | -84.38918 | 8369 ft | 290 kts | 91° |
| 2026-05-08 02:22 | 33.53602 | -84.36533 | 7906 ft | 283 kts | 90° |
| 2026-05-08 02:22 | 33.53593 | -84.34198 | 7409 ft | 278 kts | 90° |
| 2026-05-08 02:22 | 33.53593 | -84.31903 | 6934 ft | 274 kts | 89° |
| 2026-05-08 02:23 | 33.53597 | -84.29634 | 6486 ft | 277 kts | 89° |
| 2026-05-08 02:23 | 33.53605 | -84.27313 | 6004 ft | 279 kts | 89° |
| 2026-05-08 02:23 | 33.53617 | -84.25026 | 5501 ft | 272 kts | 89° |
| 2026-05-08 02:23 | 33.53631 | -84.22761 | 5025 ft | 272 kts | 89° |
| 2026-05-08 02:24 | 33.53646 | -84.20492 | 4536 ft | 272 kts | 86° |
| 2026-05-08 02:24 | 33.54133 | -84.18353 | 4024 ft | 265 kts | 52° |
| 2026-05-08 02:24 | 33.55514 | -84.17043 | 3551 ft | 250 kts | 13° |
| 2026-05-08 02:24 | 33.57194 | -84.16822 | 3081 ft | 242 kts | 358° |
| 2026-05-08 02:25 | 33.58872 | -84.16851 | 2594 ft | 240 kts | 352° |
| 2026-05-08 02:25 | 33.60454 | -84.17318 | 2313 ft | 228 kts | 334° |
| 2026-05-08 02:25 | 33.61860 | -84.18486 | 2390 ft | 275 kts | 314° |
| 2026-05-08 02:25 | 33.63146 | -84.20489 | 2600 ft | 321 kts | 300° |
| 2026-05-08 02:26 | 33.63816 | -84.22830 | 2748 ft | 281 kts | 276° |
| 2026-05-08 02:26 | 33.63733 | -84.25105 | 2254 ft | 269 kts | 266° |
| 2026-05-08 02:26 | 33.63506 | -84.27431 | 1997 ft | 292 kts | 266° |